Time;durP1;ratioP1;P1;durP2;ratioP2;P2;SDS_P1;SDS_P2;PMS_P1;PMS_P2;Temp;Humidity;BMP_temperature;BMP_pressure;BME280_temperature;BME280_humidity;BME280_pressure;Samples;Min_cycle;Max_cycle;Signal;HPM_P1;HPM_P2
2021/12/06 00:01:06;;;;;;;14.02;2.10;;;;;;;;;;5036537;28;19911;-80
2021/12/06 00:04:05;;;;;;;12.32;2.25;;;;;;;;;;5033392;28;20029;-80
2021/12/06 00:06:33;;;;;;;16.08;2.58;;;;;;;;;;4958636;28;20597;-80
2021/12/06 00:09:00;;;;;;;14.43;2.80;;;;;;;;;;4976500;28;20171;-80
2021/12/06 00:11:26;;;;;;;14.48;3.00;;;;;;;;;;4976768;28;20554;-81
2021/12/06 00:13:52;;;;;;;15.80;2.47;;;;;;;;;;4972369;28;20038;-81
2021/12/06 00:16:22;;;;;;;12.23;2.55;;;;;;;;;;4973356;28;20034;-80
2021/12/06 00:18:49;;;;;;;13.32;2.88;;;;;;;;;;4973483;28;20034;-80
2021/12/06 00:21:15;;;;;;;15.23;2.70;;;;;;;;;;4961800;28;20487;-80
2021/12/06 00:23:42;;;;;;;12.98;2.92;;;;;;;;;;4973740;28;20037;-79
2021/12/06 00:26:08;;;;;;;10.88;2.95;;;;;;;;;;4960801;28;20455;-79
2021/12/06 00:28:35;;;;;;;15.30;2.50;;;;;;;;;;4971039;28;20058;-79
2021/12/06 00:31:01;;;;;;;13.15;2.47;;;;;;;;;;4976098;28;20124;-81
2021/12/06 00:33:27;;;;;;;13.40;2.53;;;;;;;;;;4977277;28;20065;-80
2021/12/06 00:36:03;;;;;;;11.82;2.20;;;;;;;;;;4974648;28;20160;-81
2021/12/06 00:38:29;;;;;;;12.10;2.03;;;;;;;;;;4972779;28;20496;-80
2021/12/06 00:40:55;;;;;;;11.27;1.98;;;;;;;;;;4976441;28;20053;-81
2021/12/06 00:43:21;;;;;;;13.70;2.22;;;;;;;;;;5065532;28;20039;-81
2021/12/06 00:45:48;;;;;;;14.68;2.40;;;;;;;;;;5046037;28;20028;-82
2021/12/06 00:48:14;;;;;;;11.93;2.00;;;;;;;;;;5043038;28;20067;-79
2021/12/06 00:50:41;;;;;;;13.27;2.47;;;;;;;;;;5036467;28;20028;-80
2021/12/06 00:53:08;;;;;;;11.20;2.25;;;;;;;;;;5062655;28;20032;-80
2021/12/06 00:55:34;;;;;;;;;;;;;;;;;;5038420;28;20044;-82
2021/12/06 00:58:00;;;;;;;16.17;1.95;;;;;;;;;;5038175;28;20483;-80
2021/12/06 01:00:39;;;;;;;12.77;2.00;;;;;;;;;;5040246;28;20040;-82
2021/12/06 01:03:10;;;;;;;8.35;1.70;;;;;;;;;;5059944;28;20093;-82
2021/12/06 01:05:37;;;;;;;13.73;2.25;;;;;;;;;;5051221;28;20123;-82
2021/12/06 01:08:03;;;;;;;;;;;;;;;;;;5039332;28;20037;-82
2021/12/06 01:10:30;;;;;;;12.20;2.17;;;;;;;;;;5034031;28;20413;-81
2021/12/06 01:12:56;;;;;;;;;;;;;;;;;;5038265;28;20406;-82
2021/12/06 01:15:22;;;;;;;13.63;2.35;;;;;;;;;;5039694;28;19927;-82
2021/12/06 01:17:48;;;;;;;12.25;2.80;;;;;;;;;;5036577;28;20150;-82
2021/12/06 01:20:19;;;;;;;15.50;3.35;;;;;;;;;;5037908;28;20063;-82
2021/12/06 01:23:01;;;;;;;11.27;2.20;;;;;;;;;;5056872;28;20043;-82
2021/12/06 01:25:39;;;;;;;9.80;2.40;;;;;;;;;;5041603;28;22204;-82
2021/12/06 01:28:36;;;;;;;13.57;2.22;;;;;;;;;;5054294;28;20123;-79
2021/12/06 01:31:33;;;;;;;8.27;1.75;;;;;;;;;;5055098;28;20055;-81
2021/12/06 01:39:16;;;;;;;8.98;1.90;;;;;;;;;;5057746;28;20375;-81
2021/12/06 01:41:48;;;;;;;12.95;2.10;;;;;;;;;;5051988;28;20040;-81
2021/12/06 01:44:14;;;;;;;13.57;2.05;;;;;;;;;;5059185;28;20185;-81
2021/12/06 01:46:45;;;;;;;10.90;1.67;;;;;;;;;;5053370;28;20032;-80
2021/12/06 01:49:12;;;;;;;14.23;2.33;;;;;;;;;;5060315;28;20491;-81
2021/12/06 01:51:38;;;;;;;11.32;2.15;;;;;;;;;;5037929;28;20106;-82
2021/12/06 01:54:05;;;;;;;10.75;2.25;;;;;;;;;;5042341;28;20044;-82
2021/12/06 01:56:32;;;;;;;12.85;2.45;;;;;;;;;;5037728;28;20037;-82
2021/12/06 01:58:58;;;;;;;11.57;2.20;;;;;;;;;;5058157;28;20081;-82
2021/12/06 02:01:24;;;;;;;9.35;2.13;;;;;;;;;;5040132;28;20114;-80
2021/12/06 02:03:50;;;;;;;11.52;1.98;;;;;;;;;;5040954;28;20043;-80
2021/12/06 02:06:17;;;;;;;10.07;2.35;;;;;;;;;;5058739;28;20050;-80
2021/12/06 02:08:43;;;;;;;12.05;2.25;;;;;;;;;;5037367;28;20044;-80
2021/12/06 02:11:10;;;;;;;11.40;2.28;;;;;;;;;;5042630;28;20036;-82
2021/12/06 02:13:52;;;;;;;12.10;1.75;;;;;;;;;;5056966;28;20393;-81
2021/12/06 02:16:22;;;;;;;10.38;1.90;;;;;;;;;;5039523;28;20075;-81
2021/12/06 02:18:54;;;;;;;7.20;1.60;;;;;;;;;;5058361;28;21620;-80
2021/12/06 02:21:26;;;;;;;11.25;2.22;;;;;;;;;;5044019;28;20031;-80
2021/12/06 02:23:53;;;;;;;9.02;1.70;;;;;;;;;;5054888;28;20522;-81
2021/12/06 02:26:20;;;;;;;10.20;1.92;;;;;;;;;;5058864;28;20036;-80
2021/12/06 02:28:46;;;;;;;8.07;1.50;;;;;;;;;;5056712;28;20369;-81
2021/12/06 02:31:13;;;;;;;10.20;1.88;;;;;;;;;;5060437;28;20050;-80
2021/12/06 02:33:39;;;;;;;8.60;2.28;;;;;;;;;;5058801;28;20029;-80
2021/12/06 02:36:06;;;;;;;10.50;1.58;;;;;;;;;;5042003;28;20032;-81
2021/12/06 02:38:32;;;;;;;9.68;1.50;;;;;;;;;;5035778;28;20034;-80
2021/12/06 02:40:59;;;;;;;9.38;1.70;;;;;;;;;;5060652;28;20036;-81
2021/12/06 02:43:25;;;;;;;15.10;1.73;;;;;;;;;;5058197;28;20024;-80
2021/12/06 02:45:51;;;;;;;14.20;1.95;;;;;;;;;;5039399;28;20066;-80
2021/12/06 02:48:17;;;;;;;15.02;2.03;;;;;;;;;;5061431;28;20039;-80
2021/12/06 02:50:48;;;;;;;8.43;1.70;;;;;;;;;;5035836;28;20047;-80
2021/12/06 02:53:15;;;;;;;12.90;2.20;;;;;;;;;;5065868;28;20107;-80
2021/12/06 02:55:43;;;;;;;11.02;1.90;;;;;;;;;;5050077;28;20062;-79
2021/12/06 02:58:17;;;;;;;10.77;1.52;;;;;;;;;;5074015;28;20024;-80
2021/12/06 03:00:54;;;;;;;12.80;1.50;;;;;;;;;;5037784;28;20470;-80
2021/12/06 03:03:21;;;;;;;8.05;1.23;;;;;;;;;;5057921;28;20162;-80
2021/12/06 03:05:50;;;;;;;;;;;;;;;;;;5058689;28;20050;-83
2021/12/06 03:08:33;;;;;;;7.75;1.50;;;;;;;;;;5060639;28;19927;-82
2021/12/06 03:11:00;;;;;;;9.02;1.30;;;;;;;;;;5038245;28;20143;-79
2021/12/06 03:13:26;;;;;;;9.27;1.30;;;;;;;;;;5056289;28;20209;-80
2021/12/06 03:15:52;;;;;;;11.18;1.42;;;;;;;;;;5060491;28;20039;-81
2021/12/06 03:18:19;;;;;;;9.82;1.60;;;;;;;;;;5059744;28;20061;-79
2021/12/06 03:20:45;;;;;;;9.43;1.63;;;;;;;;;;5034089;28;20620;-82
2021/12/06 03:23:11;;;;;;;9.30;1.50;;;;;;;;;;5036607;28;20846;-80
2021/12/06 03:25:37;;;;;;;9.07;1.20;;;;;;;;;;5056089;28;20105;-80
2021/12/06 03:28:04;;;;;;;9.65;1.20;;;;;;;;;;5044070;28;20019;-80
2021/12/06 03:30:30;;;;;;;5.82;1.23;;;;;;;;;;5060487;28;20102;-81
2021/12/06 03:32:56;;;;;;;9.77;1.80;;;;;;;;;;5042746;28;20665;-80
2021/12/06 03:35:23;;;;;;;8.48;1.40;;;;;;;;;;5043983;28;20123;-80
2021/12/06 03:37:49;;;;;;;9.75;1.50;;;;;;;;;;5042145;28;21796;-80
2021/12/06 03:40:15;;;;;;;5.88;1.10;;;;;;;;;;5062078;28;20209;-79
2021/12/06 03:42:41;;;;;;;4.63;1.00;;;;;;;;;;5040139;28;20020;-80
2021/12/06 03:45:09;;;;;;;9.23;1.23;;;;;;;;;;5043733;28;20024;-80
2021/12/06 03:47:35;;;;;;;9.75;1.40;;;;;;;;;;5056136;28;20145;-79
2021/12/06 03:50:02;;;;;;;10.25;1.67;;;;;;;;;;5062580;28;20123;-80
2021/12/06 03:52:28;;;;;;;8.30;1.48;;;;;;;;;;5044987;28;20040;-79
2021/12/06 03:54:55;;;;;;;9.65;1.58;;;;;;;;;;5042884;28;20032;-82
2021/12/06 03:57:22;;;;;;;7.85;1.30;;;;;;;;;;5041198;28;20498;-79
2021/12/06 03:59:49;;;;;;;9.00;1.52;;;;;;;;;;5040857;28;20039;-79
2021/12/06 04:02:15;;;;;;;7.93;1.20;;;;;;;;;;5043110;28;20532;-80
2021/12/06 04:04:41;;;;;;;11.00;1.25;;;;;;;;;;5040621;28;20055;-80
2021/12/06 04:07:08;;;;;;;10.80;1.40;;;;;;;;;;5063235;28;20067;-79
2021/12/06 04:09:35;;;;;;;11.27;1.40;;;;;;;;;;5038241;28;20573;-79
2021/12/06 04:12:01;;;;;;;10.20;1.50;;;;;;;;;;5044508;28;20038;-80
2021/12/06 04:14:28;;;;;;;7.13;1.30;;;;;;;;;;5063626;28;20489;-80
2021/12/06 04:16:54;;;;;;;8.73;1.30;;;;;;;;;;5064386;28;20032;-81
2021/12/06 04:19:20;;;;;;;9.10;1.33;;;;;;;;;;5044253;28;20131;-81
2021/12/06 04:21:47;;;;;;;17.02;1.48;;;;;;;;;;5058851;28;20039;-81
2021/12/06 04:24:14;;;;;;;12.80;1.58;;;;;;;;;;5062466;28;20035;-81
2021/12/06 04:26:40;;;;;;;7.75;1.50;;;;;;;;;;5036984;28;20029;-81
2021/12/06 04:29:07;;;;;;;12.20;1.67;;;;;;;;;;5043339;28;20055;-81
2021/12/06 04:31:36;;;;;;;9.70;1.30;;;;;;;;;;5034997;28;20047;-81
2021/12/06 04:34:02;;;;;;;9.55;1.30;;;;;;;;;;5060679;28;20607;-81
2021/12/06 04:36:28;;;;;;;7.78;1.48;;;;;;;;;;5063359;28;20043;-81
2021/12/06 04:38:54;;;;;;;9.93;1.42;;;;;;;;;;5039143;28;20039;-81
2021/12/06 04:41:21;;;;;;;10.82;1.52;;;;;;;;;;5060749;28;20032;-80
2021/12/06 04:43:47;;;;;;;7.63;1.38;;;;;;;;;;5039101;28;20040;-80
2021/12/06 04:46:14;;;;;;;10.02;1.30;;;;;;;;;;5059398;28;20505;-80
2021/12/06 04:48:40;;;;;;;11.60;1.45;;;;;;;;;;5054001;28;20020;-81
2021/12/06 04:51:06;;;;;;;13.50;1.50;;;;;;;;;;5044831;28;20064;-80
2021/12/06 04:53:38;;;;;;;8.52;1.33;;;;;;;;;;5041590;28;20788;-80
2021/12/06 04:56:12;;;;;;;10.68;1.60;;;;;;;;;;5057559;28;20555;-81
2021/12/06 04:58:42;;;;;;;7.47;1.17;;;;;;;;;;5035153;28;20463;-80
2021/12/06 05:01:10;;;;;;;8.73;1.33;;;;;;;;;;5042841;28;20839;-80
2021/12/06 05:03:37;;;;;;;6.93;1.20;;;;;;;;;;5040367;28;20051;-81
2021/12/06 05:06:05;;;;;;;9.63;1.35;;;;;;;;;;5036340;28;20089;-82
2021/12/06 05:08:34;;;;;;;7.25;1.30;;;;;;;;;;5040203;28;20893;-81
2021/12/06 05:11:01;;;;;;;8.52;1.45;;;;;;;;;;5044555;28;20928;-81
2021/12/06 05:13:27;;;;;;;9.13;1.20;;;;;;;;;;5058631;28;20024;-81
2021/12/06 05:15:54;;;;;;;8.98;1.40;;;;;;;;;;5037377;28;20060;-81
2021/12/06 05:18:20;;;;;;;8.35;1.20;;;;;;;;;;5044244;28;20097;-81
2021/12/06 05:20:46;;;;;;;8.32;1.30;;;;;;;;;;5044451;28;20040;-81
2021/12/06 05:23:12;;;;;;;8.05;1.80;;;;;;;;;;5060985;28;20043;-81
2021/12/06 05:25:39;;;;;;;12.35;1.85;;;;;;;;;;5039126;28;20032;-81
2021/12/06 05:28:05;;;;;;;;;;;;;;;;;;5043722;28;20676;-81
2021/12/06 05:30:33;;;;;;;9.15;1.88;;;;;;;;;;5058942;28;19977;-81
2021/12/06 05:33:00;;;;;;;9.25;1.30;;;;;;;;;;5046115;28;20034;-80
2021/12/06 05:35:26;;;;;;;11.75;1.65;;;;;;;;;;5048939;28;20043;-80
2021/12/06 05:37:55;;;;;;;;;;;;;;;;;;5068512;28;20066;-80
2021/12/06 05:40:23;;;;;;;11.40;1.73;;;;;;;;;;5044556;28;19919;-80
2021/12/06 05:42:49;;;;;;;9.98;1.80;;;;;;;;;;5041204;28;20063;-80
2021/12/06 05:45:18;;;;;;;10.65;1.67;;;;;;;;;;5063711;28;20129;-79
2021/12/06 05:47:44;;;;;;;10.45;1.73;;;;;;;;;;5058741;28;20139;-82
2021/12/06 05:50:11;;;;;;;11.50;1.50;;;;;;;;;;5061573;28;20032;-82
2021/12/06 05:52:37;;;;;;;11.10;1.52;;;;;;;;;;5038639;28;20101;-80
2021/12/06 05:55:05;;;;;;;11.55;1.80;;;;;;;;;;5041914;28;20279;-79
2021/12/06 05:57:31;;;;;;;11.15;1.80;;;;;;;;;;5060179;28;20191;-79
2021/12/06 05:59:57;;;;;;;9.20;2.22;;;;;;;;;;5060797;28;20032;-79
2021/12/06 06:02:24;;;;;;;9.45;1.70;;;;;;;;;;5063246;28;20093;-80
2021/12/06 06:04:50;;;;;;;8.23;1.50;;;;;;;;;;5064473;28;20703;-79
2021/12/06 06:07:16;;;;;;;10.70;1.55;;;;;;;;;;5067528;28;20019;-79
2021/12/06 06:09:43;;;;;;;11.63;1.67;;;;;;;;;;5037726;28;20016;-80
2021/12/06 06:12:09;;;;;;;11.85;1.52;;;;;;;;;;5044418;28;20540;-79
2021/12/06 06:14:35;;;;;;;8.95;1.55;;;;;;;;;;5038321;28;20037;-81
2021/12/06 06:17:10;;;;;;;11.68;1.63;;;;;;;;;;5061410;28;20592;-80
2021/12/06 06:19:38;;;;;;;10.27;1.40;;;;;;;;;;5059030;28;20085;-80
2021/12/06 06:22:04;;;;;;;9.95;1.52;;;;;;;;;;5063690;28;20020;-80
2021/12/06 06:24:31;;;;;;;7.00;1.70;;;;;;;;;;5037584;28;20032;-79
2021/12/06 06:26:57;;;;;;;10.00;1.70;;;;;;;;;;5056300;28;20036;-80
2021/12/06 06:29:23;;;;;;;9.13;1.52;;;;;;;;;;5042344;28;22271;-81
2021/12/06 06:31:49;;;;;;;10.00;1.77;;;;;;;;;;5038816;28;21885;-81
2021/12/06 06:34:16;;;;;;;11.93;1.80;;;;;;;;;;5044057;28;20032;-80
2021/12/06 06:36:42;;;;;;;9.98;1.58;;;;;;;;;;5040370;28;20024;-81
2021/12/06 06:39:09;;;;;;;16.00;1.63;;;;;;;;;;5041108;28;20111;-80
2021/12/06 06:41:36;;;;;;;13.73;1.70;;;;;;;;;;5038565;28;20051;-80
2021/12/06 06:44:02;;;;;;;10.52;1.85;;;;;;;;;;5038080;28;20055;-80
2021/12/06 06:46:28;;;;;;;7.45;1.20;;;;;;;;;;5042857;28;20771;-80
2021/12/06 06:48:56;;;;;;;12.25;2.05;;;;;;;;;;5040445;28;20113;-80
2021/12/06 06:51:25;;;;;;;9.88;3.13;;;;;;;;;;5038992;28;20754;-80
2021/12/06 06:53:51;;;;;;;16.13;3.08;;;;;;;;;;5036888;28;20043;-79
2021/12/06 06:56:17;;;;;;;10.65;3.58;;;;;;;;;;5040123;28;20672;-80
2021/12/06 06:58:44;;;;;;;12.90;3.78;;;;;;;;;;5051477;28;20086;-80
2021/12/06 07:01:10;;;;;;;15.02;6.50;;;;;;;;;;5038004;28;20031;-80
2021/12/06 07:03:36;;;;;;;;;;;;;;;;;;5036007;28;20479;-81
2021/12/06 07:06:03;;;;;;;10.70;2.35;;;;;;;;;;5038940;28;19968;-81
2021/12/06 07:08:29;;;;;;;14.02;2.50;;;;;;;;;;5056864;28;20134;-80
2021/12/06 07:10:56;;;;;;;11.60;2.25;;;;;;;;;;5058921;28;20025;-80
2021/12/06 07:13:26;;;;;;;10.38;1.77;;;;;;;;;;5037977;28;20081;-80
2021/12/06 07:15:52;;;;;;;9.07;1.48;;;;;;;;;;5031626;28;20453;-81
2021/12/06 07:18:18;;;;;;;7.88;1.48;;;;;;;;;;5037758;28;20032;-82
2021/12/06 07:20:45;;;;;;;9.55;1.70;;;;;;;;;;5051044;28;20124;-82
2021/12/06 07:23:11;;;;;;;;;;;;;;;;;;5057063;28;20037;-81
2021/12/06 07:25:37;;;;;;;8.13;1.70;;;;;;;;;;5053538;28;20009;-80
2021/12/06 07:28:05;;;;;;;14.50;2.30;;;;;;;;;;5056510;28;20017;-79
2021/12/06 07:30:32;;;;;;;14.48;2.00;;;;;;;;;;5050901;28;20090;-80
2021/12/06 07:32:58;;;;;;;12.02;2.05;;;;;;;;;;5034207;28;20071;-80
2021/12/06 07:35:26;;;;;;;11.63;2.58;;;;;;;;;;5039458;28;20039;-80
2021/12/06 07:37:52;;;;;;;11.18;2.10;;;;;;;;;;5031049;28;20036;-80
2021/12/06 07:40:18;;;;;;;11.80;2.00;;;;;;;;;;5055584;28;20042;-80
2021/12/06 07:42:45;;;;;;;12.98;3.50;;;;;;;;;;5038282;28;20070;-80
2021/12/06 07:45:11;;;;;;;;;;;;;;;;;;5052534;28;20919;-81
2021/12/06 07:47:38;;;;;;;11.80;2.78;;;;;;;;;;5032495;28;19916;-82
2021/12/06 07:50:05;;;;;;;11.35;2.70;;;;;;;;;;5057381;28;20567;-82
2021/12/06 07:52:31;;;;;;;11.38;2.55;;;;;;;;;;5051057;28;20048;-81
2021/12/06 07:54:59;;;;;;;12.20;2.58;;;;;;;;;;5038373;28;20043;-81
2021/12/06 07:57:29;;;;;;;14.73;2.50;;;;;;;;;;5038161;28;20036;-81
2021/12/06 07:59:55;;;;;;;10.57;2.47;;;;;;;;;;5057960;28;20032;-80
2021/12/06 08:02:22;;;;;;;14.57;3.22;;;;;;;;;;5035872;28;20066;-80
2021/12/06 08:04:54;;;;;;;16.27;5.07;;;;;;;;;;5052536;28;20028;-80
2021/12/06 08:07:21;;;;;;;21.02;7.90;;;;;;;;;;5057577;28;20059;-80
2021/12/06 08:09:49;;;;;;;23.58;11.70;;;;;;;;;;5032198;28;20280;-81
2021/12/06 08:12:15;;;;;;;16.25;6.28;;;;;;;;;;5054839;28;20042;-82
2021/12/06 08:14:41;;;;;;;14.35;4.55;;;;;;;;;;5033960;28;20330;-80
2021/12/06 08:17:08;;;;;;;11.95;2.83;;;;;;;;;;5057266;28;20217;-84
2021/12/06 08:19:34;;;;;;;12.05;3.72;;;;;;;;;;5034920;28;20847;-81
2021/12/06 08:22:00;;;;;;;10.68;2.88;;;;;;;;;;5060459;28;20707;-81
2021/12/06 08:24:26;;;;;;;17.48;4.50;;;;;;;;;;5044164;28;20036;-81
2021/12/06 08:26:52;;;;;;;17.63;5.15;;;;;;;;;;5037277;28;20048;-81
2021/12/06 08:29:18;;;;;;;15.10;5.25;;;;;;;;;;5057781;28;20911;-81
2021/12/06 08:31:45;;;;;;;12.98;4.75;;;;;;;;;;5057326;28;20062;-79
2021/12/06 08:34:12;;;;;;;14.13;3.13;;;;;;;;;;5059913;28;20077;-79
2021/12/06 08:36:38;;;;;;;12.57;3.50;;;;;;;;;;5037010;28;20039;-80
2021/12/06 08:39:05;;;;;;;12.20;3.97;;;;;;;;;;5058689;28;20036;-81
2021/12/06 08:41:32;;;;;;;12.90;3.22;;;;;;;;;;5053707;28;20589;-80
2021/12/06 08:44:01;;;;;;;12.70;3.63;;;;;;;;;;5034875;28;21097;-80
2021/12/06 08:46:31;;;;;;;11.90;2.92;;;;;;;;;;5040944;28;20062;-80
2021/12/06 08:48:57;;;;;;;9.25;2.35;;;;;;;;;;5041751;28;20016;-81
2021/12/06 08:51:24;;;;;;;9.77;2.20;;;;;;;;;;5055777;28;20034;-81
2021/12/06 08:53:50;;;;;;;9.40;1.65;;;;;;;;;;5038829;28;20044;-81
2021/12/06 08:56:17;;;;;;;9.10;1.90;;;;;;;;;;5044674;28;20040;-81
2021/12/06 08:58:43;;;;;;;10.07;2.65;;;;;;;;;;5052568;28;20052;-80
2021/12/06 09:01:10;;;;;;;14.50;5.63;;;;;;;;;;5038562;28;20032;-80
2021/12/06 09:03:36;;;;;;;11.07;3.47;;;;;;;;;;5037348;28;20038;-79
2021/12/06 09:06:04;;;;;;;11.23;3.50;;;;;;;;;;5057855;28;20128;-83
2021/12/06 09:08:31;;;;;;;12.48;3.28;;;;;;;;;;5036673;28;21725;-81
2021/12/06 09:10:58;;;;;;;12.52;2.67;;;;;;;;;;5040462;28;20036;-81
2021/12/06 09:13:25;;;;;;;13.65;2.72;;;;;;;;;;5041618;28;20036;-81
2021/12/06 09:15:52;;;;;;;10.07;2.42;;;;;;;;;;5051944;28;20844;-82
2021/12/06 09:18:19;;;;;;;10.48;2.25;;;;;;;;;;5059593;28;20129;-80
2021/12/06 09:20:48;;;;;;;10.68;2.97;;;;;;;;;;5038196;28;20032;-81
2021/12/06 09:23:14;;;;;;;9.82;2.28;;;;;;;;;;5038824;28;20043;-81
2021/12/06 09:25:42;;;;;;;9.70;1.73;;;;;;;;;;5053191;28;20478;-82
2021/12/06 09:28:08;;;;;;;10.52;2.13;;;;;;;;;;5039186;28;20028;-82
2021/12/06 09:30:35;;;;;;;9.43;2.60;;;;;;;;;;5042063;28;20528;-83
2021/12/06 09:33:04;;;;;;;11.27;1.77;;;;;;;;;;5038333;28;20046;-82
2021/12/06 09:35:30;;;;;;;9.18;1.70;;;;;;;;;;5041685;28;20485;-82
2021/12/06 09:37:58;;;;;;;8.98;1.52;;;;;;;;;;5041566;28;20074;-80
2021/12/06 09:40:25;;;;;;;9.23;2.05;;;;;;;;;;5035103;28;20212;-81
2021/12/06 09:42:52;;;;;;;8.82;2.13;;;;;;;;;;5035994;28;20024;-81
2021/12/06 09:45:23;;;;;;;8.38;1.45;;;;;;;;;;5043231;28;20037;-81
2021/12/06 09:47:52;;;;;;;6.85;1.40;;;;;;;;;;5036605;28;20627;-82
2021/12/06 09:50:29;;;;;;;8.18;2.22;;;;;;;;;;5032593;28;20029;-82
2021/12/06 09:52:55;;;;;;;;;;;;;;;;;;5029101;28;20056;-81
2021/12/06 09:55:21;;;;;;;9.15;2.15;;;;;;;;;;5043109;28;20015;-81
2021/12/06 09:57:48;;;;;;;9.25;1.70;;;;;;;;;;5031263;28;20052;-81
2021/12/06 10:00:15;;;;;;;10.45;2.22;;;;;;;;;;5033751;28;20029;-81
2021/12/06 10:02:42;;;;;;;8.55;2.00;;;;;;;;;;5039000;28;20127;-82
2021/12/06 10:05:08;;;;;;;11.90;2.17;;;;;;;;;;5034444;28;20082;-82
2021/12/06 10:07:36;;;;;;;9.18;2.05;;;;;;;;;;5024057;28;20593;-81
2021/12/06 10:10:04;;;;;;;11.30;2.22;;;;;;;;;;5037661;28;20067;-81
2021/12/06 10:12:30;;;;;;;7.32;1.70;;;;;;;;;;5039715;28;20027;-81
2021/12/06 10:15:00;;;;;;;7.13;1.60;;;;;;;;;;5033124;28;20054;-81
2021/12/06 10:17:26;;;;;;;10.07;1.75;;;;;;;;;;5036786;28;20036;-81
2021/12/06 10:19:52;;;;;;;10.35;1.45;;;;;;;;;;5036530;28;20024;-81
2021/12/06 10:22:19;;;;;;;10.88;2.28;;;;;;;;;;5035048;28;20044;-83
2021/12/06 10:25:11;;;;;;;8.18;1.85;;;;;;;;;;5031627;28;20520;-82
2021/12/06 10:27:37;;;;;;;8.73;2.22;;;;;;;;;;5031975;28;20053;-82
2021/12/06 10:30:09;;;;;;;10.98;2.08;;;;;;;;;;5048628;28;20055;-82
2021/12/06 10:32:36;;;;;;;9.52;1.92;;;;;;;;;;5053646;28;20036;-82
2021/12/06 10:35:05;;;;;;;6.57;1.48;;;;;;;;;;5036915;28;20040;-82
2021/12/06 10:37:33;;;;;;;8.43;1.83;;;;;;;;;;5039622;28;20036;-81
2021/12/06 10:39:59;;;;;;;8.38;1.52;;;;;;;;;;5056054;28;20027;-82
2021/12/06 10:42:45;;;;;;;5.95;1.30;;;;;;;;;;5039971;28;20061;-81
2021/12/06 10:45:20;;;;;;;9.65;2.55;;;;;;;;;;5036649;28;20030;-81
2021/12/06 10:48:05;;;;;;;14.87;4.80;;;;;;;;;;5054947;28;20587;-83
2021/12/06 10:50:31;;;;;;;14.07;4.72;;;;;;;;;;5051772;28;20032;-82
2021/12/06 10:52:59;;;;;;;11.77;3.13;;;;;;;;;;5035632;28;20132;-82
2021/12/06 10:55:31;;;;;;;7.72;2.10;;;;;;;;;;5059192;28;20105;-82
2021/12/06 10:58:05;;;;;;;7.85;1.70;;;;;;;;;;5042171;28;20024;-82
2021/12/06 11:00:34;;;;;;;7.32;1.83;;;;;;;;;;5032609;28;20064;-82
2021/12/06 11:03:01;;;;;;;8.75;2.40;;;;;;;;;;5040142;28;20037;-82
2021/12/06 11:05:29;;;;;;;8.98;1.73;;;;;;;;;;5052068;28;20036;-82
2021/12/06 11:08:08;;;;;;;10.57;1.63;;;;;;;;;;5034826;28;20043;-81
2021/12/06 11:10:38;;;;;;;7.68;1.80;;;;;;;;;;5032514;28;20103;-83
2021/12/06 11:13:13;;;;;;;9.25;1.90;;;;;;;;;;5058573;28;20020;-83
2021/12/06 11:16:12;;;;;;;11.27;1.80;;;;;;;;;;5033198;28;20098;-84
2021/12/06 11:18:43;;;;;;;8.60;1.52;;;;;;;;;;4971293;28;20048;-83
2021/12/06 11:21:20;;;;;;;8.55;1.92;;;;;;;;;;4975547;28;20050;-82
2021/12/06 11:23:56;;;;;;;10.60;2.03;;;;;;;;;;4970613;28;20049;-83
2021/12/06 11:26:22;;;;;;;;;;;;;;;;;;4960625;28;20034;-82
2021/12/06 11:28:48;;;;;;;9.60;3.53;;;;;;;;;;4973151;28;21989;-83
2021/12/06 11:31:16;;;;;;;11.63;4.28;;;;;;;;;;4973777;28;20049;-82
2021/12/06 11:33:43;;;;;;;13.00;5.60;;;;;;;;;;4976608;28;20030;-82
2021/12/06 11:36:20;;;;;;;11.52;3.97;;;;;;;;;;4975367;28;20069;-83
2021/12/06 11:38:49;;;;;;;11.35;2.97;;;;;;;;;;4969414;28;20055;-83
2021/12/06 11:41:16;;;;;;;11.45;1.95;;;;;;;;;;4976552;28;21343;-82
2021/12/06 11:43:42;;;;;;;8.57;2.05;;;;;;;;;;4974033;28;20800;-83
2021/12/06 11:46:10;;;;;;;10.82;3.45;;;;;;;;;;4974156;28;20029;-82
2021/12/06 11:48:38;;;;;;;11.52;3.72;;;;;;;;;;4972143;28;20037;-82
2021/12/06 11:51:08;;;;;;;7.60;1.92;;;;;;;;;;4981197;28;20030;-82
2021/12/06 11:53:46;;;;;;;8.90;1.85;;;;;;;;;;4995558;28;20032;-83
2021/12/06 11:56:18;;;;;;;6.63;1.40;;;;;;;;;;5041192;28;20448;-83
2021/12/06 11:58:48;;;;;;;8.38;1.83;;;;;;;;;;5039882;28;20044;-82
2021/12/06 12:01:17;;;;;;;12.52;3.30;;;;;;;;;;5046616;28;20032;-83
2021/12/06 12:03:54;;;;;;;13.50;3.90;;;;;;;;;;5060246;28;20508;-83
2021/12/06 12:06:31;;;;;;;9.48;3.15;;;;;;;;;;5037949;28;20600;-83
2021/12/06 12:09:15;;;;;;;9.15;1.73;;;;;;;;;;5061697;28;20032;-81
2021/12/06 12:11:55;;;;;;;8.82;2.60;;;;;;;;;;5057108;28;20035;-83
2021/12/06 12:14:26;;;;;;;9.07;2.83;;;;;;;;;;5042002;28;20123;-83
2021/12/06 12:16:52;;;;;;;9.02;2.03;;;;;;;;;;5056010;28;20033;-82
2021/12/06 12:19:18;;;;;;;7.25;1.77;;;;;;;;;;5045882;28;20032;-81
2021/12/06 12:21:44;;;;;;;9.73;2.05;;;;;;;;;;5057542;28;20032;-81
2021/12/06 12:24:11;;;;;;;9.30;2.20;;;;;;;;;;5042505;28;20034;-81
2021/12/06 12:26:43;;;;;;;9.75;2.60;;;;;;;;;;5056403;28;20039;-81
2021/12/06 12:29:23;;;;;;;11.13;2.50;;;;;;;;;;5043684;28;20027;-82
2021/12/06 12:31:49;;;;;;;13.45;3.30;;;;;;;;;;5055625;28;20040;-82
2021/12/06 12:34:15;;;;;;;9.57;2.17;;;;;;;;;;5039964;28;20031;-82
2021/12/06 12:36:42;;;;;;;11.55;3.15;;;;;;;;;;5060446;28;20563;-82
2021/12/06 12:39:15;;;;;;;9.60;2.60;;;;;;;;;;5041857;28;20034;-81
2021/12/06 12:41:48;;;;;;;12.57;2.75;;;;;;;;;;5054790;28;20091;-81
2021/12/06 12:44:14;;;;;;;10.48;3.50;;;;;;;;;;5061335;28;20031;-82
2021/12/06 12:46:41;;;;;;;10.45;2.15;;;;;;;;;;5058961;28;20055;-81
2021/12/06 12:49:13;;;;;;;9.75;2.40;;;;;;;;;;5041040;28;20139;-81
2021/12/06 12:51:44;;;;;;;10.10;2.40;;;;;;;;;;5037541;28;20043;-82
2021/12/06 12:54:19;;;;;;;11.55;2.53;;;;;;;;;;5044830;28;20028;-84
2021/12/06 12:56:50;;;;;;;12.02;3.08;;;;;;;;;;5054295;28;20104;-82
2021/12/06 12:59:27;;;;;;;13.05;3.28;;;;;;;;;;5040694;28;20044;-81
2021/12/06 13:02:13;;;;;;;11.40;4.45;;;;;;;;;;5040463;28;20463;-81
2021/12/06 13:04:57;;;;;;;10.23;3.42;;;;;;;;;;5062468;28;20028;-83
2021/12/06 13:07:44;;;;;;;14.88;5.28;;;;;;;;;;5050021;28;20081;-81
2021/12/06 13:10:30;;;;;;;16.77;5.30;;;;;;;;;;5033805;28;20062;-83
2021/12/06 13:13:24;;;;;;;15.10;3.08;;;;;;;;;;5062642;28;20035;-82
2021/12/06 13:16:08;;;;;;;11.27;3.35;;;;;;;;;;5034665;28;20776;-82
2021/12/06 13:18:37;;;;;;;12.55;3.88;;;;;;;;;;5045051;28;20455;-82
2021/12/06 13:21:22;;;;;;;12.13;3.33;;;;;;;;;;5042729;28;20032;-81
2021/12/06 13:23:49;;;;;;;10.75;4.03;;;;;;;;;;5039395;28;20032;-81
2021/12/06 13:26:15;;;;;;;14.57;3.65;;;;;;;;;;5060263;28;20608;-84
2021/12/06 13:29:00;;;;;;;14.80;4.78;;;;;;;;;;5057354;28;20155;-83
2021/12/06 13:31:26;;;;;;;10.30;3.95;;;;;;;;;;5064010;28;20056;-81
2021/12/06 13:33:53;;;;;;;12.73;4.60;;;;;;;;;;5056644;28;20566;-80
2021/12/06 13:36:39;;;;;;;13.60;3.65;;;;;;;;;;5043755;28;20036;-83
2021/12/06 13:39:14;;;;;;;13.57;4.32;;;;;;;;;;5041434;28;20125;-84
2021/12/06 13:41:46;;;;;;;11.47;3.30;;;;;;;;;;5056139;28;20036;-82
2021/12/06 13:44:14;;;;;;;9.80;2.63;;;;;;;;;;5057858;28;20044;-82
2021/12/06 13:46:42;;;;;;;10.63;3.28;;;;;;;;;;5041133;28;20142;-82
2021/12/06 13:49:12;;;;;;;9.73;3.28;;;;;;;;;;5041867;28;20751;-83
2021/12/06 13:51:40;;;;;;;9.48;3.35;;;;;;;;;;5042333;28;20059;-82
2021/12/06 13:54:12;;;;;;;9.75;2.88;;;;;;;;;;5061100;28;20029;-82
2021/12/06 13:57:01;;;;;;;7.68;1.95;;;;;;;;;;5041666;28;20035;-82
2021/12/06 13:59:31;;;;;;;12.15;4.28;;;;;;;;;;5035110;28;20024;-81
2021/12/06 14:02:03;;;;;;;8.90;2.00;;;;;;;;;;5043265;28;20418;-82
2021/12/06 14:04:32;;;;;;;8.55;2.65;;;;;;;;;;5040573;28;20032;-82
2021/12/06 14:07:01;;;;;;;11.95;2.95;;;;;;;;;;5043204;28;20020;-83
2021/12/06 14:09:30;;;;;;;8.68;2.95;;;;;;;;;;5038426;28;20048;-83
2021/12/06 14:11:58;;;;;;;10.98;2.90;;;;;;;;;;5060219;28;20038;-83
2021/12/06 14:14:25;;;;;;;10.60;3.00;;;;;;;;;;5059614;28;20032;-82
2021/12/06 14:16:51;;;;;;;13.45;4.65;;;;;;;;;;5032982;28;20461;-83
2021/12/06 14:19:18;;;;;;;12.02;3.78;;;;;;;;;;5057663;28;20052;-81
2021/12/06 14:21:44;;;;;;;11.85;2.75;;;;;;;;;;5058444;28;20024;-81
2021/12/06 14:24:11;;;;;;;14.48;5.40;;;;;;;;;;5041852;28;20032;-81
2021/12/06 14:26:43;;;;;;;16.90;9.00;;;;;;;;;;5054406;28;20474;-81
2021/12/06 14:29:16;;;;;;;13.98;4.53;;;;;;;;;;5042406;28;20044;-81
2021/12/06 14:31:43;;;;;;;9.25;2.83;;;;;;;;;;5040965;28;20032;-81
2021/12/06 14:34:09;;;;;;;10.77;3.20;;;;;;;;;;5037877;28;20034;-81
2021/12/06 14:36:36;;;;;;;14.27;4.35;;;;;;;;;;5053374;28;20742;-81
2021/12/06 14:39:17;;;;;;;11.70;4.53;;;;;;;;;;5059831;28;20067;-82
2021/12/06 14:42:11;;;;;;;13.90;3.60;;;;;;;;;;5035914;28;20050;-81
2021/12/06 14:44:37;;;;;;;14.57;3.45;;;;;;;;;;5033679;28;20040;-82
2021/12/06 14:47:03;;;;;;;;;;;;;;;;;;5040726;28;20364;-81
2021/12/06 14:49:29;;;;;;;16.60;6.72;;;;;;;;;;5044570;28;20366;-81
2021/12/06 14:51:57;;;;;;;10.07;2.67;;;;;;;;;;5039175;28;20582;-81
2021/12/06 14:54:28;;;;;;;11.10;2.78;;;;;;;;;;5054809;28;20047;-82